Time;durP1;ratioP1;P1;durP2;ratioP2;P2;SDS_P1;SDS_P2;PMS_P1;PMS_P2;Temp;Humidity;BMP_temperature;BMP_pressure;BME280_temperature;BME280_humidity;BME280_pressure;Samples;Min_cycle;Max_cycle;Signal;HPM_P1;HPM_P2
2023/09/20 00:01:40;;;;;;;1.63;1.10;;;;;18.40;98389.00;;;;5055979;28;20041;-65
2023/09/20 00:04:07;;;;;;;4.03;1.35;;;;;18.50;98381.00;;;;5056039;28;20056;-66
2023/09/20 00:06:34;;;;;;;2.35;1.45;;;;;18.40;98387.00;;;;5055940;28;20476;-66
2023/09/20 00:09:02;;;;;;;2.97;1.60;;;;;18.40;98390.00;;;;5055546;28;20051;-66
2023/09/20 00:11:29;;;;;;;3.85;1.48;;;;;18.40;98384.00;;;;5053882;28;20064;-66
2023/09/20 00:13:57;;;;;;;3.85;1.50;;;;;18.40;98379.00;;;;5054403;28;20045;-66
2023/09/20 00:16:24;;;;;;;2.93;1.53;;;;;18.40;98379.00;;;;5054488;28;20037;-66
2023/09/20 00:18:51;;;;;;;3.53;1.50;;;;;18.40;98366.00;;;;5054640;28;20554;-66
2023/09/20 00:21:17;;;;;;;3.00;1.63;;;;;18.40;98365.00;;;;5053663;28;20414;-65
2023/09/20 00:23:44;;;;;;;3.95;1.90;;;;;18.40;98368.00;;;;5054103;28;20781;-65
2023/09/20 00:26:12;;;;;;;2.97;1.73;;;;;18.40;98363.00;;;;5054466;28;20052;-65
2023/09/20 00:28:40;;;;;;;3.92;1.60;;;;;18.40;98363.00;;;;5055538;28;20060;-65
2023/09/20 00:31:09;;;;;;;3.15;1.42;;;;;18.40;98365.00;;;;5037978;28;20136;-65
2023/09/20 00:33:35;;;;;;;1.95;1.40;;;;;18.40;98360.00;;;;5055207;28;20052;-65
2023/09/20 00:36:02;;;;;;;1.30;1.20;;;;;18.40;98362.00;;;;5055256;28;20076;-65
2023/09/20 00:38:28;;;;;;;4.07;1.38;;;;;18.40;98362.00;;;;5053959;28;20127;-64
2023/09/20 00:40:56;;;;;;;4.15;1.20;;;;;18.30;98356.00;;;;5054663;28;20045;-65
2023/09/20 00:43:23;;;;;;;2.40;1.35;;;;;18.30;98358.00;;;;5054915;28;20496;-65
2023/09/20 00:45:51;;;;;;;1.80;1.33;;;;;18.30;98357.00;;;;5054729;28;20041;-65
2023/09/20 00:48:19;;;;;;;1.80;1.20;;;;;18.30;98353.00;;;;5055577;28;20072;-64
2023/09/20 00:50:45;;;;;;;3.88;1.92;;;;;18.40;98355.00;;;;5054400;28;20056;-64
2023/09/20 00:53:13;;;;;;;2.22;1.17;;;;;18.40;98357.00;;;;5054354;28;20080;-64
2023/09/20 00:55:44;;;;;;;2.30;1.10;;;;;18.50;98359.00;;;;5054729;28;20494;-64
2023/09/20 00:58:15;;;;;;;2.75;1.88;;;;;18.50;98356.00;;;;5055605;28;20580;-64
2023/09/20 01:00:45;;;;;;;1.90;1.40;;;;;18.50;98364.00;;;;5055775;28;20045;-64
2023/09/20 01:03:16;;;;;;;3.72;1.58;;;;;18.50;98357.00;;;;5055324;28;20041;-64
2023/09/20 01:05:46;;;;;;;2.33;1.30;;;;;18.60;98356.00;;;;5054583;28;20083;-64
2023/09/20 01:08:14;;;;;;;2.75;1.35;;;;;18.60;98361.00;;;;5053932;28;20057;-64
2023/09/20 01:10:41;;;;;;;3.15;1.48;;;;;18.50;98352.00;;;;5053561;28;20140;-64
2023/09/20 01:13:11;;;;;;;3.72;1.30;;;;;18.60;98357.00;;;;5054039;28;20405;-64
2023/09/20 01:15:38;;;;;;;2.05;1.40;;;;;18.60;98344.00;;;;5052874;28;20077;-64
2023/09/20 01:18:05;;;;;;;2.45;1.40;;;;;18.60;98346.00;;;;5053419;28;20506;-64
2023/09/20 01:20:34;;;;;;;1.95;1.27;;;;;18.60;98348.00;;;;5053077;28;20045;-64
2023/09/20 01:23:01;;;;;;;3.05;1.20;;;;;18.60;98344.00;;;;5054517;28;20049;-64
2023/09/20 01:25:30;;;;;;;1.50;1.15;;;;;18.60;98340.00;;;;5053496;28;20045;-64
2023/09/20 01:27:59;;;;;;;4.55;1.30;;;;;18.60;98347.00;;;;5054124;28;20072;-64
2023/09/20 01:30:31;;;;;;;3.88;2.00;;;;;18.60;98342.00;;;;5053607;28;20053;-64
2023/09/20 01:33:00;;;;;;;2.22;1.60;;;;;18.60;98346.00;;;;5053169;28;20057;-64
2023/09/20 01:35:29;;;;;;;3.13;1.40;;;;;18.50;98347.00;;;;5053640;28;20107;-64
2023/09/20 01:37:56;;;;;;;3.55;1.58;;;;;18.50;98341.00;;;;5054322;28;20045;-64
2023/09/20 01:40:25;;;;;;;3.50;1.30;;;;;18.40;98341.00;;;;5053384;28;20045;-64
2023/09/20 01:42:53;;;;;;;2.63;1.40;;;;;18.40;98341.00;;;;5052732;28;20091;-64
2023/09/20 01:45:20;;;;;;;2.70;1.20;;;;;18.40;98341.00;;;;5052720;28;20577;-64
2023/09/20 01:47:50;;;;;;;2.95;1.60;;;;;18.40;98343.00;;;;5054564;28;20037;-63
2023/09/20 01:50:25;;;;;;;2.70;1.20;;;;;18.40;98344.00;;;;5052836;28;20052;-64
2023/09/20 01:52:55;;;;;;;3.80;1.50;;;;;18.40;98338.00;;;;5054179;28;20123;-64
2023/09/20 01:55:22;;;;;;;1.77;1.25;;;;;18.40;98333.00;;;;5052106;28;20395;-64
2023/09/20 01:57:51;;;;;;;8.27;1.27;;;;;18.40;98330.00;;;;5053068;28;20047;-64
2023/09/20 02:00:22;;;;;;;2.45;1.60;;;;;18.40;98328.00;;;;5053268;28;20073;-64
2023/09/20 02:02:51;;;;;;;2.53;1.50;;;;;18.30;98332.00;;;;5036267;28;20053;-64
2023/09/20 02:05:18;;;;;;;2.85;1.65;;;;;18.40;98333.00;;;;5052671;28;20052;-64
2023/09/20 02:07:46;;;;;;;1.42;1.33;;;;;18.40;98323.00;;;;5053657;28;20075;-64
2023/09/20 02:10:14;;;;;;;2.88;1.80;;;;;18.40;98321.00;;;;5055072;28;20128;-65
2023/09/20 02:12:45;;;;;;;6.32;1.65;;;;;18.40;98320.00;;;;5053634;28;20080;-65
2023/09/20 02:15:13;;;;;;;4.10;1.40;;;;;18.40;98317.00;;;;5053938;28;20045;-64
2023/09/20 02:17:44;;;;;;;1.73;1.42;;;;;18.40;98331.00;;;;5054600;28;20045;-65
2023/09/20 02:20:19;;;;;;;3.38;1.73;;;;;18.40;98322.00;;;;5054235;28;20045;-65
2023/09/20 02:22:47;;;;;;;4.07;1.77;;;;;18.40;98315.00;;;;5053600;28;20045;-65
2023/09/20 02:25:17;;;;;;;2.25;1.60;;;;;18.40;98326.00;;;;5053251;28;20061;-64
2023/09/20 02:27:44;;;;;;;2.95;1.60;;;;;18.40;98324.00;;;;5055206;28;20104;-65
2023/09/20 02:30:15;;;;;;;4.00;1.80;;;;;18.40;98322.00;;;;5054633;28;20051;-65
2023/09/20 02:32:43;;;;;;;5.03;1.60;;;;;18.40;98318.00;;;;5054175;28;20041;-64
2023/09/20 02:35:10;;;;;;;3.75;1.55;;;;;18.40;98306.00;;;;5052799;28;20053;-64
2023/09/20 02:37:37;;;;;;;3.20;2.05;;;;;18.40;98314.00;;;;5053295;28;20059;-65
2023/09/20 02:42:59;;;;;;;4.78;1.50;;;;;18.40;98310.00;;;;5051258;28;20044;-65
2023/09/20 02:45:30;;;;;;;3.15;1.60;;;;;18.40;98315.00;;;;5054407;28;20067;-65
2023/09/20 02:48:03;;;;;;;2.22;1.52;;;;;18.30;98308.00;;;;5039569;28;20098;-64
2023/09/20 02:50:31;;;;;;;3.85;1.50;;;;;18.30;98310.00;;;;5057388;28;20517;-64
2023/09/20 02:52:58;;;;;;;4.35;1.42;;;;;18.40;98307.00;;;;5057268;28;20045;-64
2023/09/20 02:55:27;;;;;;;2.53;1.40;;;;;18.40;98310.00;;;;5056944;28;20129;-64
2023/09/20 02:57:54;;;;;;;3.60;1.63;;;;;18.40;98315.00;;;;5040711;28;20072;-64
2023/09/20 03:00:30;;;;;;;4.80;2.08;;;;;18.30;98310.00;;;;5057122;28;20524;-64
2023/09/20 03:03:00;;;;;;;4.15;1.70;;;;;18.20;98302.00;;;;5056692;28;20182;-64
2023/09/20 03:05:30;;;;;;;4.32;1.65;;;;;18.20;98297.00;;;;5056822;28;20041;-64
2023/09/20 03:07:57;;;;;;;3.35;1.98;;;;;18.20;98291.00;;;;5057576;28;20136;-64
2023/09/20 03:10:25;;;;;;;4.03;1.70;;;;;18.20;98286.00;;;;5056193;28;20524;-64
2023/09/20 03:12:57;;;;;;;2.83;1.48;;;;;18.20;98288.00;;;;5056549;28;20041;-64
2023/09/20 03:15:27;;;;;;;;;;;;;18.30;98294.00;;;;5055646;28;20408;-64
2023/09/20 03:17:57;;;;;;;1.70;1.33;;;;;18.20;98282.00;;;;5039437;28;20301;-64
2023/09/20 03:20:25;;;;;;;3.58;1.88;;;;;18.20;98288.00;;;;5055738;28;20045;-64
2023/09/20 03:23:05;;;;;;;1.80;1.35;;;;;18.10;98295.00;;;;5055006;28;20051;-64
2023/09/20 03:25:37;;;;;;;3.72;1.60;;;;;18.10;98284.00;;;;5054737;28;20045;-64
2023/09/20 03:28:22;;;;;;;2.38;1.48;;;;;18.10;98291.00;;;;5041968;28;20049;-64
2023/09/20 03:30:51;;;;;;;2.45;1.52;;;;;18.00;98286.00;;;;5039390;28;20523;-64
2023/09/20 03:33:20;;;;;;;3.83;1.85;;;;;18.00;98278.00;;;;5054997;28;20051;-64
2023/09/20 03:35:48;;;;;;;2.05;1.45;;;;;18.00;98282.00;;;;5054624;28;20048;-64
2023/09/20 03:38:15;;;;;;;2.75;1.50;;;;;17.90;98271.00;;;;5055118;28;20037;-65
2023/09/20 03:40:41;;;;;;;3.75;1.50;;;;;17.80;98267.00;;;;5055523;28;20045;-64
2023/09/20 03:43:09;;;;;;;3.85;1.50;;;;;17.80;98279.00;;;;5057956;28;20418;-64
2023/09/20 03:45:42;;;;;;;4.45;1.98;;;;;17.80;98273.00;;;;5056084;28;20072;-64
2023/09/20 03:48:08;;;;;;;3.97;1.83;;;;;17.80;98275.00;;;;5056691;28;20135;-64
2023/09/20 03:50:39;;;;;;;2.72;1.42;;;;;17.80;98272.00;;;;5054778;28;20045;-65
2023/09/20 03:53:05;;;;;;;3.25;2.03;;;;;17.80;98284.00;;;;5057146;28;20045;-65
2023/09/20 03:55:33;;;;;;;4.38;1.85;;;;;17.80;98286.00;;;;5056636;28;20086;-65
2023/09/20 03:58:00;;;;;;;3.47;1.90;;;;;17.80;98278.00;;;;5054415;28;20069;-64
2023/09/20 04:00:28;;;;;;;3.65;1.63;;;;;17.80;98290.00;;;;5054510;28;20136;-64
2023/09/20 04:02:58;;;;;;;3.78;1.40;;;;;17.90;98273.00;;;;5055088;28;20045;-64
2023/09/20 04:05:26;;;;;;;3.22;1.60;;;;;17.80;98273.00;;;;5054771;28;20044;-65
2023/09/20 04:08:12;;;;;;;3.42;1.40;;;;;17.80;98260.00;;;;5055328;28;20406;-64
2023/09/20 04:10:40;;;;;;;3.85;1.80;;;;;17.70;98272.00;;;;5054539;28;20054;-65
2023/09/20 04:13:08;;;;;;;4.00;2.30;;;;;17.70;98274.00;;;;5055347;28;20383;-64
2023/09/20 04:15:37;;;;;;;2.60;1.70;;;;;17.80;98266.00;;;;5053066;28;20494;-66
2023/09/20 04:18:04;;;;;;;3.88;1.70;;;;;17.80;98264.00;;;;5053243;28;20072;-65
2023/09/20 04:20:31;;;;;;;2.70;1.60;;;;;17.90;98259.00;;;;5054085;28;20124;-65
2023/09/20 04:22:58;;;;;;;4.55;1.52;;;;;17.90;98259.00;;;;5052697;28;20049;-65
2023/09/20 04:25:25;;;;;;;3.70;1.70;;;;;17.80;98261.00;;;;5053204;28;20099;-65
2023/09/20 04:27:52;;;;;;;2.25;1.95;;;;;17.80;98242.00;;;;5053984;28;20045;-65
2023/09/20 04:30:19;;;;;;;2.80;1.58;;;;;17.70;98247.00;;;;5053915;28;20053;-64
2023/09/20 04:32:46;;;;;;;7.40;1.73;;;;;17.70;98239.00;;;;5053542;28;20057;-65
2023/09/20 04:35:24;;;;;;;4.40;1.50;;;;;17.80;98250.00;;;;5053099;28;20524;-65
2023/09/20 04:37:51;;;;;;;3.92;1.83;;;;;17.80;98249.00;;;;5053987;28;20048;-65
2023/09/20 04:40:18;;;;;;;2.22;1.92;;;;;17.80;98240.00;;;;5054104;28;20041;-65
2023/09/20 04:42:45;;;;;;;2.42;1.67;;;;;17.80;98239.00;;;;5053786;28;20049;-64
2023/09/20 04:45:15;;;;;;;3.65;1.95;;;;;17.80;98240.00;;;;5054386;28;20099;-65
2023/09/20 04:47:42;;;;;;;5.22;1.92;;;;;17.80;98243.00;;;;5054020;28;20079;-65
2023/09/20 04:50:11;;;;;;;4.40;2.28;;;;;17.80;98246.00;;;;5054030;28;20040;-65
2023/09/20 04:52:38;;;;;;;4.63;2.15;;;;;17.80;98246.00;;;;5053980;28;20060;-65
2023/09/20 04:55:05;;;;;;;3.30;2.05;;;;;17.80;98252.00;;;;5053078;28;20053;-64
2023/09/20 04:57:33;;;;;;;3.03;2.22;;;;;17.70;98258.00;;;;5054051;28;20044;-64
2023/09/20 04:59:59;;;;;;;4.38;2.08;;;;;17.70;98252.00;;;;5037373;28;20152;-65
2023/09/20 05:02:26;;;;;;;3.47;2.17;;;;;17.70;98245.00;;;;5055588;28;20053;-65
2023/09/20 05:04:55;;;;;;;2.28;1.90;;;;;17.70;98252.00;;;;5056299;28;20048;-65
2023/09/20 05:07:23;;;;;;;1.95;1.63;;;;;17.70;98248.00;;;;5055113;28;20095;-65
2023/09/20 05:09:50;;;;;;;2.58;1.95;;;;;17.70;98256.00;;;;5055749;28;20048;-65
2023/09/20 05:12:17;;;;;;;4.30;2.88;;;;;17.80;98254.00;;;;5055698;28;20103;-65
2023/09/20 05:14:45;;;;;;;5.53;1.90;;;;;17.80;98254.00;;;;5054661;28;20049;-65
2023/09/20 05:17:13;;;;;;;2.63;2.10;;;;;17.80;98259.00;;;;5054194;28;20147;-65
2023/09/20 05:19:41;;;;;;;5.63;2.78;;;;;17.80;98256.00;;;;5054912;28;20046;-65
2023/09/20 05:22:07;;;;;;;5.60;2.72;;;;;17.80;98251.00;;;;5055340;28;20045;-65
2023/09/20 05:24:34;;;;;;;4.10;2.20;;;;;17.60;98259.00;;;;5054897;28;20083;-66
2023/09/20 05:27:01;;;;;;;4.82;2.40;;;;;17.60;98265.00;;;;5056585;28;20457;-65
2023/09/20 05:29:27;;;;;;;3.67;1.95;;;;;17.70;98258.00;;;;5039203;28;20045;-65
2023/09/20 05:31:55;;;;;;;5.70;2.17;;;;;17.80;98259.00;;;;5055648;28;20091;-65
2023/09/20 05:34:22;;;;;;;3.30;2.20;;;;;17.90;98245.00;;;;5056293;28;20063;-66
2023/09/20 05:36:52;;;;;;;4.60;2.13;;;;;18.00;98257.00;;;;5057034;28;20600;-65
2023/09/20 05:39:19;;;;;;;4.15;2.25;;;;;18.00;98252.00;;;;5054933;28;20146;-65
2023/09/20 05:41:45;;;;;;;4.18;2.17;;;;;18.00;98264.00;;;;5057105;28;20053;-65
2023/09/20 05:44:12;;;;;;;6.75;2.13;;;;;18.10;98255.00;;;;5054522;28;20049;-65
2023/09/20 05:46:39;;;;;;;6.90;2.22;;;;;18.10;98261.00;;;;5056444;28;20071;-65
2023/09/20 05:49:06;;;;;;;2.78;1.77;;;;;18.20;98265.00;;;;5056768;28;20091;-65
2023/09/20 05:51:32;;;;;;;7.13;2.10;;;;;18.20;98261.00;;;;5056578;28;20056;-66
2023/09/20 05:53:59;;;;;;;5.80;1.95;;;;;18.30;98260.00;;;;5055054;28;20060;-65
2023/09/20 05:56:25;;;;;;;5.78;3.85;;;;;18.30;98262.00;;;;5056441;28;20044;-66
2023/09/20 05:58:53;;;;;;;5.30;3.53;;;;;18.00;98263.00;;;;5056372;28;20405;-66
2023/09/20 06:01:22;;;;;;;8.77;3.28;;;;;17.90;98263.00;;;;5056489;28;20099;-65
2023/09/20 06:03:56;;;;;;;5.85;3.78;;;;;17.90;98250.00;;;;5056120;28;20041;-66
2023/09/20 06:06:23;;;;;;;4.60;2.80;;;;;17.90;98244.00;;;;5056413;28;20049;-65
2023/09/20 06:08:49;;;;;;;7.68;2.20;;;;;17.90;98242.00;;;;5056965;28;20049;-65
2023/09/20 06:11:18;;;;;;;5.30;2.00;;;;;17.90;98246.00;;;;5056301;28;20193;-65
2023/09/20 06:13:45;;;;;;;4.70;2.03;;;;;18.00;98238.00;;;;5058468;28;20049;-65
2023/09/20 06:16:11;;;;;;;4.47;2.00;;;;;18.20;98239.00;;;;5057778;28;20049;-65
2023/09/20 06:18:39;;;;;;;3.63;1.80;;;;;18.20;98233.00;;;;5059416;28;20083;-65
2023/09/20 06:21:20;;;;;;;4.95;1.70;;;;;18.30;98241.00;;;;5058820;28;20056;-65
2023/09/20 06:23:46;;;;;;;3.92;2.03;;;;;18.40;98237.00;;;;5058807;28;20068;-64
2023/09/20 06:26:14;;;;;;;6.10;2.83;;;;;18.50;98235.00;;;;5059821;28;20095;-65
2023/09/20 06:28:44;;;;;;;8.02;1.73;;;;;18.60;98232.00;;;;5059672;28;20094;-65
2023/09/20 06:31:14;;;;;;;3.05;1.88;;;;;18.70;98240.00;;;;5059090;28;20052;-64
2023/09/20 06:33:43;;;;;;;3.88;2.15;;;;;18.70;98240.00;;;;5058825;28;20048;-65
2023/09/20 06:36:16;;;;;;;2.88;1.80;;;;;18.80;98226.00;;;;5058025;28;20090;-65
2023/09/20 06:38:43;;;;;;;3.92;1.58;;;;;18.90;98236.00;;;;5058740;28;20046;-64
2023/09/20 06:41:11;;;;;;;3.25;1.98;;;;;18.90;98227.00;;;;5058786;28;20052;-67
2023/09/20 06:43:37;;;;;;;5.32;1.80;;;;;19.10;98238.00;;;;5054529;28;20044;-64
2023/09/20 06:46:06;;;;;;;2.80;1.52;;;;;19.10;98232.00;;;;5055789;28;20071;-65
2023/09/20 06:48:33;;;;;;;3.50;1.90;;;;;19.20;98231.00;;;;5058118;28;20128;-64
2023/09/20 06:51:00;;;;;;;2.70;1.77;;;;;19.30;98240.00;;;;5057018;28;20052;-65
2023/09/20 06:53:27;;;;;;;6.63;2.30;;;;;19.50;98236.00;;;;5058486;28;20573;-64
2023/09/20 06:55:54;;;;;;;2.47;1.70;;;;;19.50;98234.00;;;;5058591;28;20060;-65
2023/09/20 06:58:21;;;;;;;2.42;1.60;;;;;19.60;98239.00;;;;5060109;28;20127;-65
2023/09/20 07:00:51;;;;;;;3.95;2.03;;;;;19.60;98229.00;;;;5059856;28;20080;-65
2023/09/20 07:03:18;;;;;;;3.55;2.03;;;;;19.70;98228.00;;;;5059689;28;20045;-65
2023/09/20 07:05:46;;;;;;;5.15;2.40;;;;;19.80;98221.00;;;;5056840;28;20049;-65
2023/09/20 07:08:12;;;;;;;5.82;2.42;;;;;19.80;98227.00;;;;5057674;28;20091;-65
2023/09/20 07:10:41;;;;;;;7.97;3.95;;;;;19.80;98240.00;;;;5055627;28;20044;-65
2023/09/20 07:13:10;;;;;;;3.10;1.75;;;;;19.80;98234.00;;;;5056642;28;20044;-65
2023/09/20 07:15:37;;;;;;;5.53;1.77;;;;;19.90;98231.00;;;;5055730;28;20413;-65
2023/09/20 07:18:11;;;;;;;3.60;1.75;;;;;19.90;98236.00;;;;5055190;28;20045;-65
2023/09/20 07:20:40;;;;;;;5.18;1.48;;;;;19.90;98234.00;;;;5056863;28;20053;-64
2023/09/20 07:23:08;;;;;;;2.42;1.50;;;;;19.90;98235.00;;;;5055950;28;20044;-65
2023/09/20 07:25:37;;;;;;;2.90;1.75;;;;;19.90;98244.00;;;;5054940;28;20111;-65
2023/09/20 07:28:04;;;;;;;5.38;1.90;;;;;19.90;98237.00;;;;5055939;28;20115;-65
2023/09/20 07:30:39;;;;;;;6.20;1.52;;;;;19.90;98241.00;;;;5054290;28;20619;-65
2023/09/20 07:33:11;;;;;;;4.22;2.08;;;;;20.00;98241.00;;;;5055876;28;20052;-64
2023/09/20 07:35:49;;;;;;;5.85;2.00;;;;;20.00;98239.00;;;;5037417;28;20484;-64
2023/09/20 07:38:26;;;;;;;3.25;2.00;;;;;20.00;98236.00;;;;5055031;28;20080;-65
2023/09/20 07:41:02;;;;;;;5.75;2.33;;;;;20.00;98229.00;;;;5055493;28;20078;-65
2023/09/20 07:43:28;;;;;;;3.38;1.63;;;;;19.90;98230.00;;;;5054754;28;20045;-64
2023/09/20 07:45:55;;;;;;;3.88;2.05;;;;;19.90;98230.00;;;;5055357;28;20502;-64
2023/09/20 07:48:24;;;;;;;5.00;3.17;;;;;19.90;98229.00;;;;5054886;28;20695;-65
2023/09/20 07:50:51;;;;;;;3.40;1.95;;;;;20.00;98234.00;;;;5055857;28;20045;-64
2023/09/20 07:53:19;;;;;;;4.25;2.00;;;;;20.00;98239.00;;;;5053990;28;20047;-65
2023/09/20 07:56:03;;;;;;;3.55;1.80;;;;;20.10;98234.00;;;;5056975;28;20072;-65
2023/09/20 07:58:32;;;;;;;6.57;2.30;;;;;20.20;98231.00;;;;5056907;28;20068;-65
2023/09/20 08:01:02;;;;;;;4.40;2.00;;;;;20.30;98232.00;;;;5056139;28;20421;-65
2023/09/20 08:03:32;;;;;;;5.78;1.60;;;;;20.60;98230.00;;;;5054446;28;20045;-65
2023/09/20 08:05:59;;;;;;;5.07;1.80;;;;;20.60;98231.00;;;;5053892;28;20060;-65
2023/09/20 08:08:25;;;;;;;4.93;1.45;;;;;20.70;98225.00;;;;5053780;28;20120;-65
2023/09/20 08:10:52;;;;;;;3.00;1.52;;;;;20.80;98228.00;;;;5054580;28;20045;-65
2023/09/20 08:13:38;;;;;;;4.55;1.70;;;;;21.00;98218.00;;;;5052579;28;20382;-64
2023/09/20 08:16:09;;;;;;;2.80;1.67;;;;;21.10;98222.00;;;;5054392;28;20528;-65
2023/09/20 08:21:22;;;;;;;3.00;1.70;;;;;21.20;98228.00;;;;5055574;28;20099;-65
2023/09/20 09:00:30;;;;;;;4.28;1.63;;;;;22.80;98220.00;;;;5051214;28;20131;-65
2023/09/20 09:02:58;;;;;;;;;;;;;22.90;98233.00;;;;5051964;28;20049;-65
2023/09/20 09:05:30;;;;;;;2.95;1.40;;;;;22.90;98230.00;;;;5052121;28;20594;-64
2023/09/20 09:07:59;;;;;;;3.03;1.45;;;;;23.00;98221.00;;;;5034780;28;20458;-64
2023/09/20 09:10:26;;;;;;;3.92;1.52;;;;;23.10;98222.00;;;;5052978;28;20056;-65
2023/09/20 09:12:53;;;;;;;3.72;1.27;;;;;23.20;98225.00;;;;5051479;28;20041;-64
2023/09/20 09:15:22;;;;;;;4.07;1.10;;;;;23.30;98235.00;;;;5051888;28;20541;-64
2023/09/20 09:17:49;;;;;;;2.58;1.33;;;;;23.30;98213.00;;;;5051053;28;20056;-65
2023/09/20 09:20:19;;;;;;;3.83;1.25;;;;;23.30;98223.00;;;;5052435;28;20045;-65
2023/09/20 09:22:47;;;;;;;2.42;1.20;;;;;23.30;98219.00;;;;5035781;28;20055;-65
2023/09/20 09:25:20;;;;;;;1.92;1.10;;;;;23.30;98209.00;;;;5052866;28;20081;-64
2023/09/20 09:27:47;;;;;;;2.25;1.33;;;;;23.50;98212.00;;;;5052949;28;20052;-64
2023/09/20 09:30:17;;;;;;;2.28;1.15;;;;;23.60;98213.00;;;;5052754;28;20041;-64
2023/09/20 09:32:47;;;;;;;1.98;1.02;;;;;23.90;98206.00;;;;5052182;28;20136;-64
2023/09/20 09:35:18;;;;;;;1.80;1.08;;;;;24.00;98211.00;;;;5050398;28;20516;-64
2023/09/20 09:38:02;;;;;;;1.90;1.15;;;;;23.90;98216.00;;;;5052380;28;20049;-64
2023/09/20 09:40:29;;;;;;;2.10;0.90;;;;;23.90;98209.00;;;;5052055;28;20045;-64
2023/09/20 09:43:11;;;;;;;1.92;0.93;;;;;24.00;98201.00;;;;5052134;28;20049;-64
2023/09/20 09:45:38;;;;;;;1.38;1.02;;;;;24.10;98197.00;;;;5052263;28;20045;-64
2023/09/20 09:48:06;;;;;;;3.22;1.33;;;;;24.20;98202.00;;;;5054862;28;20110;-64
2023/09/20 09:50:38;;;;;;;2.28;0.90;;;;;24.40;98197.00;;;;5054734;28;20049;-65
2023/09/20 09:53:08;;;;;;;1.42;0.95;;;;;24.40;98194.00;;;;5056053;28;20099;-64
2023/09/20 09:55:37;;;;;;;2.97;1.40;;;;;24.40;98195.00;;;;5053913;28;20076;-64
2023/09/20 09:58:04;;;;;;;3.15;1.08;;;;;24.40;98195.00;;;;5055775;28;20049;-65
2023/09/20 10:00:36;;;;;;;1.85;0.93;;;;;24.40;98188.00;;;;5055861;28;20444;-64
2023/09/20 10:03:25;;;;;;;1.60;0.90;;;;;24.50;98191.00;;;;5056101;28;20045;-65
2023/09/20 10:06:05;;;;;;;2.65;1.00;;;;;24.40;98189.00;;;;5055747;28;20417;-64
2023/09/20 10:08:37;;;;;;;3.05;1.10;;;;;24.40;98201.00;;;;5055323;28;20110;-64
2023/09/20 10:11:05;;;;;;;2.10;1.20;;;;;24.40;98184.00;;;;5054547;28;20504;-64
2023/09/20 10:13:34;;;;;;;1.58;1.00;;;;;24.30;98184.00;;;;5054034;28;20047;-64
2023/09/20 10:16:01;;;;;;;4.88;1.35;;;;;24.20;98178.00;;;;5054248;28;20053;-64
2023/09/20 10:18:32;;;;;;;1.50;0.95;;;;;24.20;98179.00;;;;5055712;28;20056;-65
2023/09/20 10:21:10;;;;;;;1.92;1.00;;;;;24.20;98175.00;;;;5055592;28;20568;-64
2023/09/20 10:23:38;;;;;;;2.42;1.00;;;;;24.20;98181.00;;;;5053780;28;20049;-64
2023/09/20 10:26:38;;;;;;;4.57;1.20;;;;;24.30;98184.00;;;;5056655;28;20041;-65
2023/09/20 10:29:26;;;;;;;4.90;1.30;;;;;24.30;98197.00;;;;5056070;28;20053;-64
2023/09/20 10:32:13;;;;;;;2.58;1.30;;;;;24.30;98193.00;;;;5038431;28;20065;-64
2023/09/20 10:34:40;;;;;;;2.22;1.10;;;;;24.40;98181.00;;;;5055576;28;20045;-65
2023/09/20 10:37:08;;;;;;;1.92;1.08;;;;;24.40;98168.00;;;;5056320;28;20524;-65
2023/09/20 10:39:42;;;;;;;2.35;1.05;;;;;24.40;98181.00;;;;5055870;28;20118;-64
2023/09/20 10:42:12;;;;;;;3.03;1.10;;;;;24.50;98178.00;;;;5054462;28;20071;-65
2023/09/20 10:44:41;;;;;;;0.90;0.90;;;;;24.60;98167.00;;;;5053441;28;20049;-64
2023/09/20 10:47:17;;;;;;;1.20;1.10;;;;;24.60;98166.00;;;;5055561;28;20045;-65
2023/09/20 10:49:52;;;;;;;1.88;1.00;;;;;24.60;98162.00;;;;5053997;28;20045;-64
2023/09/20 10:52:30;;;;;;;1.73;0.90;;;;;24.70;98156.00;;;;5055060;28;20082;-65
2023/09/20 10:55:28;;;;;;;1.58;1.00;;;;;24.80;98160.00;;;;5056210;28;20048;-65
2023/09/20 10:57:56;;;;;;;2.67;1.23;;;;;25.00;98149.00;;;;5056236;28;20127;-65
2023/09/20 11:00:30;;;;;;;2.20;0.95;;;;;25.10;98146.00;;;;5055464;28;20132;-64
2023/09/20 11:02:57;;;;;;;2.08;1.30;;;;;25.20;98136.00;;;;5054013;28;20048;-65
2023/09/20 11:05:26;;;;;;;4.47;1.67;;;;;25.20;98131.00;;;;5054160;28;20053;-65
2023/09/20 11:07:54;;;;;;;1.75;1.30;;;;;25.30;98128.00;;;;5055286;28;20044;-64
2023/09/20 11:10:21;;;;;;;2.50;1.40;;;;;25.30;98128.00;;;;5055060;28;20041;-64
2023/09/20 11:12:50;;;;;;;2.78;1.38;;;;;25.50;98111.00;;;;5055860;28;20468;-64
2023/09/20 11:15:16;;;;;;;1.48;1.05;;;;;25.90;98117.00;;;;5055323;28;20439;-64
2023/09/20 11:17:43;;;;;;;2.28;1.40;;;;;26.10;98112.00;;;;5056971;28;20120;-65
2023/09/20 11:20:12;;;;;;;2.65;1.30;;;;;26.10;98112.00;;;;5056420;28;20073;-65
2023/09/20 11:22:41;;;;;;;3.15;1.50;;;;;26.00;98116.00;;;;5057044;28;20044;-65
2023/09/20 11:25:08;;;;;;;3.78;1.30;;;;;26.20;98108.00;;;;5038345;28;20045;-64
2023/09/20 11:27:36;;;;;;;3.15;1.30;;;;;26.10;98108.00;;;;5055108;28;20067;-65
2023/09/20 11:30:04;;;;;;;2.03;1.40;;;;;26.10;98113.00;;;;5056789;28;20064;-64
2023/09/20 11:32:31;;;;;;;2.05;1.10;;;;;26.00;98113.00;;;;5056524;28;20208;-65
2023/09/20 11:34:57;;;;;;;4.50;1.42;;;;;26.30;98100.00;;;;5056407;28;20087;-64
2023/09/20 11:37:24;;;;;;;2.85;1.10;;;;;26.50;98103.00;;;;5055984;28;20409;-65
2023/09/20 11:39:53;;;;;;;3.03;1.95;;;;;26.60;98098.00;;;;5055885;28;20052;-65
2023/09/20 11:42:34;;;;;;;4.70;1.35;;;;;26.90;98104.00;;;;5055535;28;20051;-65
2023/09/20 11:45:08;;;;;;;3.95;1.38;;;;;27.00;98103.00;;;;5052626;28;20110;-65
2023/09/20 11:47:55;;;;;;;1.88;1.08;;;;;27.10;98080.00;;;;5053096;28;20494;-65
2023/09/20 11:50:25;;;;;;;2.92;1.35;;;;;27.30;98086.00;;;;5053065;28;20414;-65
2023/09/20 11:52:53;;;;;;;2.65;1.40;;;;;27.40;98088.00;;;;5054934;28;20041;-63
2023/09/20 11:55:20;;;;;;;1.73;1.50;;;;;27.50;98084.00;;;;5054214;28;20045;-63
2023/09/20 11:57:48;;;;;;;1.90;1.00;;;;;27.60;98086.00;;;;5056689;28;20053;-62
2023/09/20 12:00:16;;;;;;;3.38;1.45;;;;;27.70;98084.00;;;;5057650;28;20469;-63
2023/09/20 12:02:43;;;;;;;1.98;1.25;;;;;27.80;98082.00;;;;5058614;28;20041;-63
2023/09/20 12:05:11;;;;;;;2.55;1.48;;;;;27.90;98081.00;;;;5056657;28;20048;-63
2023/09/20 12:07:38;;;;;;;2.28;1.45;;;;;27.80;98072.00;;;;5057893;28;20041;-63
2023/09/20 12:10:06;;;;;;;3.42;1.27;;;;;27.70;98067.00;;;;5057480;28;20037;-63
2023/09/20 12:12:34;;;;;;;1.48;1.30;;;;;27.60;98069.00;;;;5055972;28;20048;-62
2023/09/20 12:15:01;;;;;;;2.22;1.42;;;;;27.60;98062.00;;;;5056354;28;20667;-64
2023/09/20 12:17:28;;;;;;;3.47;1.33;;;;;27.60;98075.00;;;;5057159;28;20447;-64
2023/09/20 12:19:55;;;;;;;4.07;1.50;;;;;27.60;98056.00;;;;5055124;28;20045;-64
2023/09/20 12:22:22;;;;;;;2.95;1.63;;;;;27.60;98056.00;;;;5055134;28;20051;-64
2023/09/20 12:24:48;;;;;;;4.05;2.10;;;;;27.40;98054.00;;;;5055964;28;20409;-65
2023/09/20 12:27:17;;;;;;;2.75;1.65;;;;;27.40;98049.00;;;;5056219;28;20041;-65
2023/09/20 12:29:44;;;;;;;2.80;1.95;;;;;27.30;98043.00;;;;5056630;28;20076;-65
2023/09/20 12:32:11;;;;;;;2.97;1.92;;;;;27.30;98044.00;;;;5054684;28;20091;-65
2023/09/20 12:34:37;;;;;;;3.33;2.00;;;;;27.40;98045.00;;;;5054952;28;20103;-65
2023/09/20 12:37:05;;;;;;;4.00;1.85;;;;;27.30;98036.00;;;;5055574;28;20040;-65
2023/09/20 12:39:32;;;;;;;3.63;1.80;;;;;27.30;98030.00;;;;5055567;28;20051;-65
2023/09/20 12:41:58;;;;;;;3.22;1.80;;;;;27.10;98033.00;;;;5055557;28;20513;-65
2023/09/20 12:44:26;;;;;;;1.70;1.58;;;;;27.10;98041.00;;;;5054976;28;20037;-65
2023/09/20 12:46:54;;;;;;;3.03;1.75;;;;;27.10;98015.00;;;;5055846;28;20052;-65
2023/09/20 12:49:20;;;;;;;2.90;1.90;;;;;27.10;98033.00;;;;5054992;28;20044;-64
2023/09/20 12:51:47;;;;;;;3.40;1.33;;;;;27.20;98028.00;;;;5054956;28;20082;-63
2023/09/20 12:54:16;;;;;;;3.85;1.67;;;;;27.10;98026.00;;;;5055790;28;20319;-64
2023/09/20 12:56:43;;;;;;;5.05;1.70;;;;;27.20;98026.00;;;;5057377;28;20119;-64
2023/09/20 12:59:13;;;;;;;2.90;1.50;;;;;27.30;98032.00;;;;5055594;28;20561;-64
2023/09/20 13:01:39;;;;;;;1.65;1.42;;;;;27.20;98014.00;;;;5055929;28;20057;-64
2023/09/20 13:04:07;;;;;;;2.50;1.70;;;;;27.30;98009.00;;;;5055461;28;20103;-63
2023/09/20 13:06:36;;;;;;;3.92;1.77;;;;;27.50;98002.00;;;;5057598;28;20136;-64
2023/09/20 13:09:03;;;;;;;4.13;1.73;;;;;27.50;98002.00;;;;5057979;28;20486;-64
2023/09/20 13:11:30;;;;;;;2.90;2.00;;;;;27.50;97990.00;;;;5057329;28;20805;-64